Meath Environmental Platform

Observations

Time Sensor AQI SAQ Temp °C Hum % Pres Pa CO μg/m³ H₂S μg/m³ NO μg/m³ NO₂ μg/m³ O₃ μg/m³ SO₂ μg/m³ CO₂e PPM VOC PPM PM1 μg/m³ PM2.5 μg/m³ PM4 μg/m³ PM10 μg/m³ TPS µm
Tuesday 11 August 2026
00:43 Trim Market St 2 15.1 62 57,850 0.23 0 1.85 13.08 42.85 0 2.14 3.94 6.18
00:43 Trim Patrick St 2 13.7 69 110,697 0.19 6.33 3.13 35.39 12.42 0 2.86 7.41 8.15
00:42 Trim Market St 2 15.1 62 57,853 0.23 0 1.84 13.38 39.68 0 2.14 3.45 4.82
00:42 Trim Patrick St 2 13.7 68 107,569 0.19 5.6 3.35 33.13 13.73 0 3.71 8.15 8.97
00:41 Trim Market St 2 15.2 62 57,855 0.22 0 1.86 15.14 41.37 0 0.71 1.96 3.47
00:41 Trim Patrick St 2 13.7 68 104,930 0.2 6.04 3.31 34.03 12.93 0 3.71 7.43 8.17
00:40 Trim Market St 2 15.2 62 57,856 0.22 0 1.75 12.97 39.35 0 2.14 3.95 5.5
00:40 Trim Patrick St 2 13.8 68 104,690 0.2 5.34 3.35 31.68 15.51 0 2.86 7.44 8.18
00:39 Trim Market St 2 15.2 62 57,858 0.23 0 1.57 12.97 39.59 0 2.14 3.45 4.82
00:39 Trim Patrick St 2 13.8 68 102,788 0.19 5.76 3.26 33.03 13.71 0 3.71 8.17 8.98
00:38 Trim Market St 2 15.2 61 57,859 0.21 0 1.65 15.11 39.36 0 0 1.96 2.78
00:38 Trim Patrick St 2 13.8 68 100,763 0.21 6.02 3.37 33.48 13.4 0 5.43 10.34 11.37
00:37 Trim Patrick St 2 13.8 68 98,769 0.2 5.99 3.23 31.65 14.71 0 5.43 10.36 11.39
00:36 Trim Patrick St 2 13.8 68 97,018 0.21 5.71 3.05 31.19 15.05 0 4.57 10.36 11.39
00:35 Trim Patrick St 2 13.9 68 95,367 0.21 5.81 2.64 31.56 15.16 0 4.57 9.65 10.61
00:34 Trim Patrick St 2 13.9 68 93,849 0.2 5.63 2.65 30.62 15.36 0 6.29 12.56 13.81
00:33 Trim Market St 2 15.3 61 57,868 0.22 0 1.76 13.15 40.95 0 1.43 2.97 4.14
00:32 Trim Market St 2 15.3 61 57,870 0.22 0 2.09 14.19 37.71 0 1.43 3.47 6.17
00:32 Trim Patrick St 2 13.9 68 90,869 0.19 5.89 3.31 31.98 14.68 0 5.43 9.66 10.63
00:30 Trim Patrick St 2 13.9 67 88,359 0.19 5.63 3.37 32.4 14.08 0 5.43 9.68 10.64